Flight Track Log - Related Links

Times and Time Zones

All times are in EDT time to prevent confusion due to time zone crossing. See the N787CM flight status page for this flight to view local times or setup timezone preferences in your user account.

Time Position Orientation Groundspeed Altitude Reporting Facility
EDT Latitude Longitude Course Direction KTS MPH feet Rate Location/Type
Sun 02:29:18 PM 36.1167 -86.6833 11° North 162 186 1,200  Level Nashville TRACON
Sun 02:30:18 PM 36.1833 -86.6667 11° North 216 249 3,600 2,278 Climbing Nashville TRACON
Sun 02:31:06 PM 36.2333 -86.6525 13° North 249 287 5,300 2,400 Climbing Memphis Center
Sun 02:32:08 PM 36.3142 -86.6358 North 286 329 8,000 2,710 Climbing Memphis Center
Sun 02:33:10 PM 36.3614 -86.6961 314° West 281 323 10,900 2,806 Climbing Memphis Center
Sun 02:34:12 PM 36.3236 -86.7761 240° Southwest 269 310 13,800 2,758 Climbing Memphis Center
Sun 02:35:14 PM 36.2828 -86.8592 239° Southwest 266 306 16,600 2,855 Climbing Memphis Center
Sun 02:36:16 PM 36.2417 -86.9394 238° Southwest 269 310 19,700 3,048 Climbing Memphis Center
Sun 02:37:18 PM 36.2039 -87.0133 238° Southwest 259 298 22,900 2,177 Climbing Memphis Center
Sun 02:38:20 PM 36.1675 -87.0858 238° Southwest 248 285 24,200 1,548 Climbing Memphis Center
Sun 02:39:22 PM 36.1206 -87.1769 237° Southwest 261 300 26,100 1,694 Climbing Memphis Center
Sun 02:40:24 PM 36.0914 -87.2614 247° West 268 308 27,700 1,296 Climbing Memphis Center
Sun 02:41:27 PM 36.0719 -87.3547 256° West 276 318 28,800 1,296 Climbing Memphis Center
Sun 02:42:29 PM 36.0519 -87.4528 256° West 286 329 30,400 1,210 Climbing Memphis Center
Sun 02:43:31 PM 36.0339 -87.5464 257° West 284 327 31,300 774 Climbing Memphis Center
Sun 02:44:33 PM 36.0142 -87.6442 256° West 286 329 32,000 823 Climbing Memphis Center
Sun 02:45:35 PM 35.9933 -87.7453 256° West 295 339 33,000 1,065 Climbing Memphis Center
Sun 02:46:37 PM 35.9697 -87.8611 256° West 297 342 34,200 919 Climbing Memphis Center
Sun 02:47:39 PM 35.9483 -87.9611 255° West 297 342 34,900 484 Climbing Memphis Center
Sun 02:48:41 PM 35.9278 -88.0625 256° West 298 343 35,200 290 Climbing Memphis Center
Sun 02:49:43 PM 35.9075 -88.1556 255° West 308 354 35,500 339 Climbing Memphis Center
Sun 02:50:45 PM 35.8808 -88.2839 256° West 317 365 35,900 242 Climbing Memphis Center
Sun 02:51:47 PM 35.8603 -88.3931 257° West 323 372 36,000 48 Climbing Memphis Center
Sun 02:52:49 PM 35.8269 -88.5019 249° West 337 388 36,000  Level Memphis Center
Sun 02:53:51 PM 35.7603 -88.5919 228° Southwest 350 403 36,000  Level Memphis Center
Sun 02:54:54 PM 35.6867 -88.6764 223° Southwest 355 409 36,000  Level Memphis Center
Sun 02:55:56 PM 35.6106 -88.7631 223° Southwest 366 421 36,000  Level Memphis Center
Sun 02:56:58 PM 35.5228 -88.8636 223° Southwest 368 423 36,000  Level Memphis Center
Sun 02:58:00 PM 35.4450 -88.9511 223° Southwest 374 430 36,000  Level Memphis Center
Sun 02:59:02 PM 35.3694 -89.0375 223° Southwest 374 430 36,000  Level Memphis Center
Sun 03:00:04 PM 35.2922 -89.1239 222° Southwest 374 430 36,000  Level Memphis Center
Sun 03:01:06 PM 35.2167 -89.2094 223° Southwest 374 430 36,000  Level Memphis Center
Sun 03:02:08 PM 35.1269 -89.3097 222° Southwest 370 426 36,000  Level Memphis Center
Sun 03:03:10 PM 35.0511 -89.3956 223° Southwest 368 423 36,000  Level Memphis Center
Sun 03:04:12 PM 34.9739 -89.4808 222° Southwest 369 425 36,000  Level Memphis Center
Sun 03:05:14 PM 34.8964 -89.5672 222° Southwest 374 430 36,000  Level Memphis Center
Sun 03:06:16 PM 34.8142 -89.6586 222° Southwest 374 430 36,000  Level Memphis Center
Sun 03:07:18 PM 34.7372 -89.7458 223° Southwest 374 430 36,000  Level Memphis Center
Sun 03:08:20 PM 34.6594 -89.8328 223° Southwest 374 430 36,000  Level Memphis Center
Sun 03:09:22 PM 34.5814 -89.9189 222° Southwest 375 432 36,000  Level Memphis Center
Sun 03:10:24 PM 34.5042 -90.0036 222° Southwest 375 432 36,000  Level Memphis Center
Sun 03:11:27 PM 34.4111 -90.1050 222° Southwest 375 432 36,000  Level Memphis Center
Sun 03:12:29 PM 34.3328 -90.1928 223° Southwest 378 435 36,000  Level Memphis Center
Sun 03:13:31 PM 34.2550 -90.2764 222° Southwest 378 435 36,000  Level Memphis Center
Sun 03:14:33 PM 34.1761 -90.3619 222° Southwest 379 436 36,000  Level Memphis Center
Sun 03:15:35 PM 34.0981 -90.4467 222° Southwest 379 436 36,000  Level Memphis Center
Sun 03:16:37 PM 34.0200 -90.5317 222° Southwest 379 436 36,000  Level Memphis Center
Sun 03:17:39 PM 33.9281 -90.6306 222° Southwest 373 429 36,000  Level Memphis Center
Sun 03:18:41 PM 33.8497 -90.7150 222° Southwest 373 429 36,000  Level Memphis Center
Sun 03:19:43 PM 33.7800 -90.7906 222° Southwest 374 430 36,000  Level Memphis Center
Sun 03:20:45 PM 33.6892 -90.8889 222° Southwest 373 429 36,000  Level Memphis Center
Sun 03:21:47 PM 33.6133 -90.9703 222° Southwest 371 427 36,000  Level Memphis Center
Sun 03:22:49 PM 33.5381 -91.0506 222° Southwest 370 426 36,000  Level Memphis Center
Sun 03:23:51 PM 33.4614 -91.1300 221° Southwest 369 425 36,000  Level Memphis Center
Sun 03:24:53 PM 33.3853 -91.2111 222° Southwest 369 425 36,000  Level Memphis Center
Sun 03:25:55 PM 33.2942 -91.3086 222° Southwest 369 425 36,000  Level Memphis Center
Sun 03:26:57 PM 33.2175 -91.3886 221° Southwest 370 426 36,000  Level Memphis Center
Sun 03:27:59 PM 33.1406 -91.4703 222° Southwest 370 426 36,000  Level Memphis Center
Sun 03:29:01 PM 33.0633 -91.5511 221° Southwest 370 426 36,000  Level Memphis Center
Sun 03:30:03 PM 32.9861 -91.6319 221° Southwest 370 426 36,000  Level Memphis Center
Sun 03:31:05 PM 32.8936 -91.7278 221° Southwest 371 427 36,000  Level Memphis Center
Sun 03:32:07 PM 32.8192 -91.8069 222° Southwest 370 426 36,000 -48 Level Memphis Center
Sun 03:33:09 PM 32.7417 -91.8867 221° Southwest 367 422 35,900 -270 Descending Memphis Center
Sun 03:33:58 PM 32.6883 -91.9436 222° Southwest 367 422 35,500 -541 Descending Fort Worth Center
Sun 03:35:00 PM 32.5978 -92.0381 221° Southwest 370 426 34,900 -532 Descending Fort Worth Center
Sun 03:36:02 PM 32.5186 -92.1186 221° Southwest 374 430 34,400 -435 Descending Fort Worth Center
Sun 03:37:04 PM 32.4369 -92.2022 221° Southwest 375 432 34,000 -194 Descending Fort Worth Center
Sun 03:38:06 PM 32.3653 -92.2761 221° Southwest 365 420 34,000  Level Fort Worth Center
Sun 03:39:17 PM 32.2681 -92.3747 221° Southwest 363 418 34,000  Level Houston Center
Sun 03:40:20 PM 32.1936 -92.4539 222° Southwest 363 418 34,000  Level Houston Center
Sun 03:41:22 PM 32.1181 -92.5292 220° Southwest 360 414 34,000  Level Houston Center
Sun 03:42:24 PM 32.0281 -92.6206 221° Southwest 358 412 34,000  Level Houston Center
Sun 03:43:26 PM 31.9542 -92.6981 222° Southwest 357 411 34,000  Level Houston Center
Sun 03:44:28 PM 31.8900 -92.7836 229° Southwest 352 405 34,000  Level Houston Center
Sun 03:45:30 PM 31.8236 -92.8667 227° Southwest 351 404 34,000  Level Houston Center
Sun 03:46:33 PM 31.7586 -92.9506 228° Southwest 350 403 34,000  Level Houston Center
Sun 03:47:35 PM 31.6803 -93.0489 227° Southwest 347 399 34,000  Level Houston Center
Sun 03:48:37 PM 31.6158 -93.1319 228° Southwest 344 396 34,000  Level Houston Center
Sun 03:49:39 PM 31.5508 -93.2125 227° Southwest 344 396 34,000  Level Houston Center
Sun 03:50:41 PM 31.4794 -93.3019 227° Southwest 343 395 34,000  Level Houston Center
Sun 03:51:43 PM 31.4147 -93.3839 227° Southwest 343 395 34,000  Level Houston Center
Sun 03:53:38 PM 31.2992 -93.5303 227° Southwest 343 395 34,000  Level Fort Worth Center
Sun 03:54:40 PM 31.2200 -93.6264 226° Southwest 342 394 34,000  Level Fort Worth Center
Sun 03:55:42 PM 31.1561 -93.7083 228° Southwest 342 394 34,000  Level Fort Worth Center
Sun 03:56:44 PM 31.0878 -93.7919 226° Southwest 342 394 34,000 -627 Level Fort Worth Center
Sun 03:57:56 PM 31.0189 -93.8783 227° Southwest 347 399 32,600 -1,612 Descending Houston Center
Sun 03:58:58 PM 30.9392 -93.9764 227° Southwest 347 399 30,400 -1,872 Descending Houston Center
Sun 04:00:01 PM 30.8689 -94.0617 226° Southwest 362 417 28,700 -1,632 Descending Houston Center
Sun 04:01:03 PM 30.8003 -94.1453 226° Southwest 362 417 27,000 -1,742 Descending Houston Center
Sun 04:02:05 PM 30.7336 -94.2283 227° Southwest 359 413 25,100 -1,742 Descending Houston Center
Sun 04:03:07 PM 30.6639 -94.3119 226° Southwest 359 413 23,400 -1,983 Descending Houston Center
Sun 04:04:06 PM 30.5850 -94.4083 226° Southwest 360 414 21,100 -2,226 Descending Houston Center
Sun 04:04:09 PM 30.5808 -94.4125 221° Southwest 359 413 21,100 -1,727 Level Houston Center
Sun 04:05:12 PM 30.5122 -94.4956 226° Southwest 359 413 19,200 -1,969 Descending Houston Center
Sun 04:05:13 PM 30.5081 -94.5008 228° Southwest 354 407 19,000 -1,839 Descending Houston Center
Sun 04:06:14 PM 30.4506 -94.5864 232° Southwest 347 399 17,300 -1,756 Descending Houston Center
Sun 04:07:16 PM 30.3869 -94.6839 233° Southwest 334 384 15,400 -1,707 Descending Houston Center
Sun 04:08:17 PM 30.3394 -94.7578 233° Southwest 273 314 13,800 -1,452 Descending Houston Center
Sun 04:08:18 PM 30.3464 -94.7483 50° Northeast 303 349 13,900 -1,082 Climbing Houston Center
Sun 04:09:18 PM 30.2975 -94.8236 233° Southwest 255 293 12,700 -1,258 Descending Houston Center
Sun 04:09:20 PM 30.2944 -94.8267 221° Southwest 257 296 12,600 -1,219 Descending Houston Center
Sun 04:10:22 PM 30.2483 -94.8978 233° Southwest 274 315 11,400 -1,150 Descending Houston Center
Sun 04:11:20 PM 30.1986 -94.9764 234° Southwest 297 342 10,300 -1,143 Descending Houston Center
Sun 04:11:25 PM 30.1994 -94.9736 71° East 290 334 10,200 -358 Descending Houston Center
Sun 04:12:27 PM 30.1539 -95.0456 234° Southwest 285 328 9,900 -145 Descending Houston Center
Sun 04:13:29 PM 30.0867 -95.0906 210° Southwest 285 328 9,900 108 Level Houston Center
Sun 04:14:18 PM 30.0147 -95.1225 201° Southwest 277 319 10,100  Climbing Houston Center
Sun 04:14:31 PM 29.9992 -95.1283 198° South 282 325 9,900  Descending Houston Center
Sun 04:15:25 PM 29.9361 -95.1561 201° Southwest 244 281 10,100  Climbing Houston Center
Sun 04:15:33 PM 29.9306 -95.1583 199° South 269 310 9,900  Descending Houston Center
Sun 04:16:26 PM 29.8733 -95.1831 201° Southwest 238 274 10,100 97 Climbing Houston Center
Sun 04:16:35 PM 29.8692 -95.1850 202° Southwest 246 283 10,000 -764 Descending Houston Center
Sun 04:17:21 PM 29.8169 -95.2069 200° South 235 270 9,400 -667 Descending Houston Center
Sun 04:17:38 PM 29.8086 -95.2108 202° Southwest 239 275 9,300 -984 Descending Houston Center
Sun 04:18:22 PM 29.7539 -95.2314 198° South 241 277 8,400 -968 Descending Houston Center
Sun 04:18:40 PM 29.7458 -95.2325 187° South 238 274 8,300 -885 Descending Houston Center
Sun 04:19:23 PM 29.6831 -95.2353 182° South 255 293 7,500 -1,065 Descending Houston Center
Sun 04:19:42 PM 29.6633 -95.2344 178° South 250 288 7,200 -984 Descending Houston Center
Sun 04:20:24 PM 29.6158 -95.2361 182° South 232 267 6,500 -968 Descending Houston Center
Sun 04:20:44 PM 29.6008 -95.2361 180° South 235 270 6,200 -1,082 Descending Houston Center
Sun 04:21:25 PM 29.5592 -95.2600 207° Southwest 207 238 5,400 -1,065 Descending Houston Center
Sun 04:21:46 PM 29.5492 -95.2678 214° Southwest 221 254 5,100 -1,082 Descending Houston Center
Sun 04:22:26 PM 29.5103 -95.2994 215° Southwest 224 258 4,300 -968 Descending Houston Center
Sun 04:22:48 PM 29.5053 -95.3119 245° Southwest 221 254 4,100 -1,180 Descending Houston Center
Sun 04:23:27 PM 29.5219 -95.3556 294° West 189 217 3,100 -1,258 Descending Houston Center
Sun 04:23:50 PM 29.5294 -95.3658 310° West 198 228 2,800 -1,180 Descending Houston Center
Sun 04:24:28 PM 29.5681 -95.3572 11° North 204 235 1,900 -1,048 Descending Houston Center
Sun 04:24:53 PM 29.5839 -95.3428 38° Northeast 196 226 1,700 -885 Descending Houston Center
Sun 04:25:29 PM 29.6069 -95.3214 39° Northeast 174 200 1,000 -968 Descending Houston Center
Sun 04:25:55 PM 29.6197 -95.3058 47° Northeast 180 207 700 -614 Descending Houston Center
Sun 04:26:57 PM 29.6494 -95.2731 44° Northeast 156 180 100 -581 Descending Houston Center

Login

Don't have an account? Register now (free) for customized features, flight alerts, and more!